Aérodrome :







RETROUVEZ-NOUS SUR...

 
LOGIN :

S'inscrire | Disclaimer

   EN    FR    IT 

 









Légende :    VFR   VFR Marginal   IFR   IFR Intensif   IFR Très Intensif
Visi : 
Plafond : 
>= 8 km
>= 3000ft
5 à 8 km
1000 à 3000 ft
1500m à 5 km
500 à 1000 ft
800 à 1500m
200 à 500 ft
< 800m
< 200 ft
Symboles :   Orages  Brouillard  Fortes neiges  Fortes précipitations  Vent > 20 kt






- Altitude de l'aérodrome : 496 ft
- Code IATA : YQX


CYQX - Gander

DERNIER METAR :
  • 241900Z 15015KT 20SM FEW250 03/M06 A3016 RMK CI1 SLP224

METARs EXPIRÉS :
  • 241800Z 14012KT 20SM FEW250 03/M05 A3017 RMK CI1 SLP228
  • 241700Z 17008KT 20SM FEW250 03/M05 A3020 RMK CI2 SLP235

TAF TAF CYQX
Valide du 24 à 18h jusqu'au 25 à 18h UTC


241743Z 2418/2518 17008KT P6SM SCT012
FM241900 17010KT P6SM BKN015
TEMPO 2419/2502 SCT015
FM250200 18010KT P6SM SCT007
TEMPO 2502/2509 4SM BR BKN007
FM250900 22010KT 4SM BR BKN006
PROB30 2509/2513 2SM BR
FM251300 22010KT P6SM BKN010 RMK NXT FCST BY 250000Z



MET'MAP, la Météo Aéronautique d'un coup d'oeil ! - Copyright ORBIFLY Décembre 2007 - Disclaimer

ORBIFLY MET'MAP TEAM :

Programmation & Développement : Alexandra Zaïnal
Sur une idée originale de : Baudouin d'Aumeries
Assistance à la programmation : Marc-Olivier Méhu
Soutien technique & logistique : Manuel Goepfert

Contact : metmap@orbifly.com




SOURCES & CREDITS :

   NOAA